createdAt,value
2023-05-17T00:03:12.140Z,98294.25
2023-05-17T00:06:24.726Z,98304.09
2023-05-17T00:09:37.320Z,98309.30
2023-05-17T00:12:49.842Z,98306.06
2023-05-17T00:16:02.443Z,98309.72
2023-05-17T00:19:15.550Z,98317.06
2023-05-17T00:22:28.814Z,98312.72
2023-05-17T00:25:41.315Z,98313.23
2023-05-17T00:28:54.041Z,98312.39
2023-05-17T00:32:06.559Z,98314.07
2023-05-17T00:35:19.179Z,98302.05
2023-05-17T00:38:31.944Z,98299.89
2023-05-17T00:41:44.613Z,98302.70
2023-05-17T00:44:57.073Z,98307.56
2023-05-17T00:48:10.309Z,98305.77
2023-05-17T00:51:25.484Z,98297.58
2023-05-17T00:54:39.106Z,98286.07
2023-05-17T00:57:52.285Z,98289.13
2023-05-17T01:01:05.893Z,98297.49
2023-05-17T01:04:19.070Z,98315.12
2023-05-17T01:07:31.934Z,98317.61
2023-05-17T01:10:52.220Z,98315.42
2023-05-17T01:14:11.572Z,98314.77
2023-05-17T01:17:30.201Z,98317.13
2023-05-17T01:20:47.705Z,98326.81
2023-05-17T01:24:07.730Z,98322.61
2023-05-17T01:27:23.158Z,98318.92
2023-05-17T01:30:39.257Z,98325.43
2023-05-17T01:33:51.974Z,98337.15
2023-05-17T01:37:04.514Z,98333.62
2023-05-17T01:40:18.315Z,98329.48
2023-05-17T01:43:39.119Z,98317.81
2023-05-17T01:46:52.271Z,98304.50
2023-05-17T01:50:10.179Z,98324.86
2023-05-17T01:53:29.503Z,98324.86
2023-05-17T01:56:45.590Z,98334.86
2023-05-17T01:59:59.506Z,98339.52
2023-05-17T02:03:15.412Z,98342.48
2023-05-17T02:06:28.083Z,98345.81
2023-05-17T02:09:40.455Z,98351.50
2023-05-17T02:12:53.178Z,98357.01
2023-05-17T02:16:10.047Z,98362.21
2023-05-17T02:19:22.524Z,98361.02
2023-05-17T02:22:35.216Z,98363.00
2023-05-17T02:25:48.153Z,98355.84
2023-05-17T02:29:00.630Z,98354.88
2023-05-17T02:32:14.375Z,98351.87
2023-05-17T02:35:27.281Z,98352.55
2023-05-17T02:38:39.990Z,98348.56
2023-05-17T02:41:52.565Z,98340.56
2023-05-17T02:45:05.277Z,98335.89
2023-05-17T02:48:17.895Z,98347.56
2023-05-17T02:51:30.465Z,98349.08
2023-05-17T02:54:43.691Z,98344.23
2023-05-17T02:57:56.262Z,98337.22
2023-05-17T03:01:09.756Z,98326.57
2023-05-17T03:04:22.501Z,98322.22
2023-05-17T03:07:35.198Z,98330.92
2023-05-17T03:10:48.156Z,98343.55
2023-05-17T03:14:01.504Z,98349.72
2023-05-17T03:17:15.860Z,98342.56
2023-05-17T03:20:29.380Z,98347.73
2023-05-17T03:23:42.363Z,98347.25
2023-05-17T03:26:55.076Z,98350.89
2023-05-17T03:30:08.477Z,98345.56
2023-05-17T03:33:22.203Z,98354.05
2023-05-17T03:36:35.829Z,98361.23
2023-05-17T03:39:48.302Z,98357.06
2023-05-17T03:43:00.834Z,98366.39
2023-05-17T03:46:14.816Z,98372.88
2023-05-17T03:49:27.335Z,98379.53
2023-05-17T03:52:42.215Z,98373.89
2023-05-17T03:55:54.872Z,98390.20
2023-05-17T03:59:07.376Z,98394.54
2023-05-17T04:02:21.334Z,98409.86
2023-05-17T04:05:34.104Z,98423.67
2023-05-17T04:08:47.042Z,98424.84
2023-05-17T04:11:59.968Z,98437.18
2023-05-17T04:15:14.608Z,98439.49
2023-05-17T04:18:27.485Z,98444.15
2023-05-17T04:21:40.325Z,98444.81
2023-05-17T04:24:53.223Z,98447.47
2023-05-17T04:28:06.162Z,98451.47
2023-05-17T04:31:21.197Z,98445.15
2023-05-17T04:34:33.939Z,98437.66
2023-05-17T04:37:47.674Z,98442.98
2023-05-17T04:41:12.481Z,98468.13
2023-05-17T04:44:25.510Z,98461.15
2023-05-17T04:47:39.019Z,98449.84
2023-05-17T04:50:54.590Z,98450.14
2023-05-17T04:54:08.996Z,98445.17
2023-05-17T04:57:21.758Z,98449.84
2023-05-17T05:00:36.446Z,98455.81
2023-05-17T05:03:50.164Z,98449.65
2023-05-17T05:07:02.998Z,98447.16
2023-05-17T05:10:17.347Z,98438.65
2023-05-17T05:13:30.163Z,98443.84
2023-05-17T05:16:42.724Z,98442.34
2023-05-17T05:19:55.567Z,98433.84
2023-05-17T05:23:08.465Z,98446.18
2023-05-17T05:26:22.695Z,98457.51
2023-05-17T05:29:36.036Z,98471.98
2023-05-17T05:32:48.807Z,98462.17
2023-05-17T05:36:01.691Z,98466.48
2023-05-17T05:39:14.437Z,98471.68
2023-05-17T05:42:27.913Z,98475.00
2023-05-17T05:45:52.099Z,98487.16
2023-05-17T05:49:08.588Z,98481.83
2023-05-17T05:52:21.349Z,98490.16
2023-05-17T05:55:34.236Z,98494.34
2023-05-17T05:58:47.078Z,98505.50
2023-05-17T06:02:00.098Z,98514.83
2023-05-17T06:05:14.270Z,98510.83
2023-05-17T06:08:28.220Z,98511.50
2023-05-17T06:11:41.148Z,98517.81
2023-05-17T06:14:53.569Z,98515.85
2023-05-17T06:18:06.432Z,98517.53
2023-05-17T06:21:20.660Z,98513.20
2023-05-17T06:24:33.430Z,98504.83
2023-05-17T06:27:46.623Z,98531.19
2023-05-17T06:30:59.334Z,98530.03
2023-05-17T06:34:11.833Z,98538.38
2023-05-17T06:37:32.396Z,98546.53
2023-05-17T06:40:44.904Z,98545.88
2023-05-17T06:43:57.469Z,98547.56
2023-05-17T06:47:10.309Z,98539.88
2023-05-17T06:50:33.173Z,98543.03
2023-05-17T06:53:45.978Z,98551.55
2023-05-17T06:56:58.588Z,98548.05
2023-05-17T07:00:13.599Z,98550.05
2023-05-17T07:03:26.797Z,98547.88
2023-05-17T07:06:39.459Z,98553.86
2023-05-17T07:09:51.955Z,98554.20
2023-05-17T07:13:04.837Z,98564.89
2023-05-17T07:16:19.916Z,98560.72
2023-05-17T07:19:32.603Z,98567.70
2023-05-17T07:22:46.722Z,98571.89
2023-05-17T07:25:59.161Z,98588.91
2023-05-17T07:29:19.517Z,98600.55
2023-05-17T07:36:35.076Z,98581.71
2023-05-17T07:39:48.864Z,98596.55
2023-05-17T07:43:01.580Z,98611.70
2023-05-17T07:46:14.393Z,98590.14
2023-05-17T07:49:27.836Z,98614.20
2023-05-17T07:52:40.654Z,98615.38
2023-05-17T07:55:53.133Z,98623.04
2023-05-17T07:59:06.143Z,98627.22
2023-05-17T08:02:18.886Z,98628.06
2023-05-17T08:05:35.044Z,98641.57
2023-05-17T08:08:47.978Z,98624.38
2023-05-17T08:12:00.600Z,98642.53
2023-05-17T08:15:15.093Z,98641.86
2023-05-17T08:18:27.871Z,98638.71
2023-05-17T08:21:40.618Z,98633.38
2023-05-17T08:24:53.194Z,98634.20
2023-05-17T08:28:05.877Z,98636.86
2023-05-17T08:31:18.421Z,98634.95
2023-05-17T08:34:33.667Z,98645.70
2023-05-17T08:37:46.368Z,98651.38
2023-05-17T08:48:43.748Z,98653.27
2023-05-17T08:51:59.698Z,98662.52
2023-05-17T08:55:16.796Z,98667.06
2023-05-17T08:58:48.098Z,98676.55
2023-05-17T09:01:53.164Z,98675.56
2023-05-17T09:05:07.048Z,98684.52
2023-05-17T12:47:01.808Z,98884.13
2023-05-17T12:50:16.515Z,98891.16
2023-05-17T13:25:04.493Z,98934.43
2023-05-17T13:28:17.549Z,98961.14
2023-05-17T13:31:30.193Z,98964.77
2023-05-17T13:43:42.902Z,98990.96
2023-05-17T13:46:55.456Z,98995.28
2023-05-17T13:50:09.740Z,99001.87
2023-05-17T13:53:22.589Z,99006.78
2023-05-17T13:56:35.905Z,99018.11
2023-05-17T13:59:48.490Z,99020.07
2023-05-17T14:03:00.998Z,99033.21
2023-05-17T14:06:14.390Z,99027.90
2023-05-17T14:09:26.853Z,99034.91
2023-05-17T14:12:39.493Z,99033.36
2023-05-17T14:15:52.021Z,99040.92
2023-05-17T14:19:04.926Z,99044.14
2023-05-17T14:22:18.275Z,99022.33
2023-05-17T14:25:31.211Z,99047.34
2023-05-17T14:28:44.116Z,99047.34
2023-05-17T14:31:56.693Z,99050.80
2023-05-17T14:35:09.939Z,99067.88
2023-05-17T14:38:25.028Z,99075.56
2023-05-17T14:41:39.517Z,99056.97
2023-05-17T14:44:51.808Z,99067.49
2023-05-17T14:48:04.674Z,99059.08
2023-05-17T14:54:17.855Z,99034.28
2023-05-17T14:57:31.577Z,99074.59
2023-05-17T15:00:46.954Z,99023.91
2023-05-17T15:03:59.720Z,99066.18
2023-05-17T15:07:12.656Z,99046.56
2023-05-17T15:10:25.520Z,99070.09
2023-05-17T15:13:38.504Z,99087.98
2023-05-17T15:16:51.389Z,99091.63
2023-05-17T16:29:17.068Z,99162.23
2023-05-17T19:00:51.787Z,99289.82
2023-05-17T19:04:04.237Z,99306.94
2023-05-17T19:07:17.251Z,99304.16
2023-05-17T19:10:30.133Z,99305.69
2023-05-17T19:13:42.920Z,99305.10
2023-05-17T19:16:57.138Z,99301.87
2023-05-17T20:00:46.698Z,99336.49
2023-05-17T20:03:59.409Z,99340.86
2023-05-17T20:07:12.255Z,99333.03
2023-05-17T20:10:25.166Z,99336.50
2023-05-17T20:13:40.332Z,99342.80
2023-05-17T20:16:53.249Z,99346.66
2023-05-17T20:32:16.832Z,99349.45
2023-05-17T20:35:29.573Z,99354.48
2023-05-17T20:38:42.356Z,99359.66
2023-05-17T20:41:55.095Z,99351.47
2023-05-17T20:45:09.152Z,99353.99
2023-05-17T20:48:21.802Z,99353.99
2023-05-17T20:51:34.435Z,99364.60
2023-05-17T20:54:47.023Z,99363.75
2023-05-17T20:57:59.614Z,99359.89
2023-05-17T21:01:12.099Z,99360.60
2023-05-17T21:04:24.676Z,99357.01
2023-05-17T21:07:39.418Z,99367.13
2023-05-17T21:10:52.114Z,99365.68
2023-05-17T21:14:04.713Z,99363.16
2023-05-17T21:17:17.374Z,99370.00
2023-05-17T21:20:29.910Z,99353.00
2023-05-17T21:23:42.360Z,99363.25
2023-05-17T21:26:54.842Z,99354.80
2023-05-17T21:30:08.268Z,99367.70
2023-05-17T21:33:20.664Z,99367.70
2023-05-17T21:36:33.158Z,99366.98
2023-05-17T21:39:45.669Z,99369.77
2023-05-17T21:42:58.106Z,99373.14
2023-05-17T21:46:10.932Z,99373.14
2023-05-17T21:49:23.564Z,99382.19
2023-05-17T21:52:36.229Z,99377.33
2023-05-17T21:56:01.185Z,99379.89
2023-05-17T21:59:05.134Z,99376.75
2023-05-17T22:02:17.746Z,99382.64
2023-05-17T22:05:31.013Z,99356.02
2023-05-17T22:08:43.715Z,99378.31
2023-05-17T22:11:58.366Z,99381.47
2023-05-17T22:15:13.870Z,99378.94
2023-05-17T22:18:27.288Z,99378.45
2023-05-17T22:21:40.336Z,99383.89
2023-05-17T22:24:54.149Z,99387.53
2023-05-17T22:28:06.854Z,99390.05
2023-05-17T22:31:19.894Z,99390.05
2023-05-17T22:34:33.147Z,99384.02
2023-05-17T22:37:45.974Z,99381.11
2023-05-17T22:40:58.626Z,99378.84
2023-05-17T22:44:11.435Z,99375.58
2023-05-17T22:47:26.056Z,99386.09
2023-05-17T22:50:38.982Z,99382.45
2023-05-17T22:53:51.845Z,99378.72
2023-05-17T22:57:04.566Z,99380.06
2023-05-17T23:00:19.911Z,99379.93
2023-05-17T23:03:32.534Z,99387.63
2023-05-17T23:06:44.965Z,99380.66
2023-05-17T23:09:58.307Z,99377.02
2023-05-17T23:13:10.886Z,99378.23
2023-05-17T23:16:25.573Z,99370.98
2023-05-17T23:19:40.733Z,99378.00
2023-05-17T23:22:53.390Z,99372.11
2023-05-17T23:26:06.155Z,99373.19
2023-05-17T23:29:19.229Z,99378.72
2023-05-17T23:32:32.608Z,99375.12
2023-05-17T23:35:45.252Z,99369.81
2023-05-17T23:38:58.003Z,99373.41
2023-05-17T23:42:11.061Z,99374.52
2023-05-17T23:45:23.794Z,99378.00
2023-05-17T23:48:36.459Z,99377.05
2023-05-17T23:51:49.140Z,99379.70
2023-05-17T23:55:01.775Z,99377.28
2023-05-17T23:58:14.475Z,99378.98
